Weather observations for the past three days for
Phoenix-Mesa Gateway Airport
Metric (Imperial)
Date Time (mst) Wind (kph) Vis. (km) Weather Sky Cond. Temperature (ºC) Relative Humidity Wind Chill (°C) Heat Index (°C) Pressure Precipitation (cm)
Air Dwpt 6 hour altimeter (cm) sea level (mb) 1 hr 3 hr 6 hr
Max. Min.
09 07:52 SE 17 16.09 Fair CLR 26 2 21% 26 75.92 0.0
09 05:49 E 13 16.09 Fair CLR 21 -1 23% 75.82 0.0
09 04:55 E 13 16.09 Fair CLR 21 -1 23% 75.77 0.0
09 04:35 E 11 16.09 Fair CLR 21.4 -1 22% 75.77 0.0
09 04:15 E 13 16.09 Fair CLR 21.5 -0.7 23% 75.77 0.0
09 03:55 E 13 16.09 Fair CLR 22 -0.5 22% 75.74 0.0
09 03:35 E 15 16.09 Fair CLR 22.1 -0.5 22% 75.74 0.0
09 03:15 SE 15 16.09 Fair CLR 22.4 -0.4 22% 75.74 0.0
09 02:55 SE 11 16.09 Fair CLR 22.3 -0.7 22% 75.74 0.0
09 02:35 E 13 16.09 Fair CLR 23.2 0.3 22% 75.74 0.0
09 02:15 E 13 16.09 Fair CLR 23.4 0.7 22% 75.77 0.0
09 01:55 SE 15 16.09 Fair CLR 22.1 2 27% 75.74 0.0
09 01:35 SE 7 16.09 Fair CLR 22.9 1.1 24% 75.74 0.0
09 01:15 SE 7 16.09 Fair CLR 23 0.8 23% 75.74 0.0
09 00:55 E 7 16.09 Fair CLR 24.8 2.1 23% 25 75.74 0.0
09 00:35 E 6 16.09 Fair CLR 25.5 2.8 23% 25 75.74 0.0
09 00:15 Calm 16.09 Fair CLR 26.9 2.2 20% 26 75.74 0.0
08 23:50 Calm 16.09 Fair CLR 27 1 18% 26 75.72 0.0
08 22:48 SW 11 16.09 Fair CLR 28 1 17% 27 75.72 0.0
08 21:55 W 13 16.09 Fair CLR 29 1 16% 27 75.72 0.0
08 20:55 SW 15 16.09 Fair CLR 30 0 14% 28 75.67 0.0
08 19:55 SW 9 16.09 Fair CLR 33 -1 11% 31 75.62 0.0
08 18:47 W 19 16.09 Fair CLR 36 -1 9% 33 75.59 0.0
08 17:47 W 22 G 37 16.09 Fair CLR 37 -1 9% 34 75.62 0.0
08 16:54 W 26 G 41 16.09 Fair CLR 37 -3 8% 34 75.62 0.0
08 15:48 W 19 G 33 16.09 Fair CLR 37 -1 9% 34 75.67 0.0
08 14:47 W 22 G 30 16.09 Fair CLR 36 1 11% 33 75.74 0.0
08 13:49 W 15 G 30 16.09 Fair CLR 34 0 11% 31 75.82 0.0
08 11:51 Calm 16.09 Fair CLR 31 1 15% 29 75.95 0.0
08 10:47 Calm 16.09 Fair CLR 29 1 16% 27 76 0.0
08 09:50 Calm 16.09 Fair CLR 28 2 19% 27 76.02 0.0
08 08:51 SE 15 16.09 Fair CLR 26 2 21% 26 76.02 0.0
08 07:49 SE 17 16.09 Fair CLR 24 2 24% 25 76.05 0.0
08 06:49 SE 15 16.09 Fair CLR 22 2 27% 76.02 0.0
08 05:49 E 15 16.09 Fair CLR 19 0 28% 75.95 0.0
08 04:50 E 17 16.09 Fair CLR 20 1 28% 75.92 0.0
08 04:35 E 20 16.09 Fair CLR 20.3 1.2 28% 75.92 0.0
08 04:15 E 19 16.09 Fair CLR 20.1 1.2 28% 75.92 0.0
08 03:55 E 15 16.09 Fair CLR 20.9 1.9 28% 75.92 0.0
08 03:35 E 20 16.09 Fair CLR 21.5 1.8 27% 75.9 0.0
08 03:15 SE 15 16.09 Fair CLR 21.7 1.6 27% 75.87 0.0
08 02:55 SE 20 16.09 Fair CLR 21.7 1.7 27% 75.87 0.0
08 02:35 E 17 16.09 Fair CLR 21 0.4 25% 75.87 0.0
08 02:15 E 17 16.09 Fair CLR 21.2 2 28% 75.87 0.0
08 01:55 E 19 16.09 Fair CLR 21.3 2 28% 75.9 0.0
08 01:35 E 17 16.09 Fair CLR 21.5 1.7 27% 75.9 0.0
08 01:15 E 17 16.09 Fair CLR 21.6 -0.1 24% 75.9 0.0
08 00:55 E 15 16.09 Fair CLR 21.8 -3.2 19% 75.9 0.0
08 00:35 E 19 16.09 Fair CLR 22.3 -4.5 16% 75.9 0.0
08 00:15 SE 15 16.09 Fair CLR 22.6 -4.9 16% 75.9 0.0
07 23:50 E 17 16.09 Fair CLR 23 -4 16% 75.9 0.0
07 22:51 Calm 16.09 Fair CLR 26 -5 12% 25 75.87 0.0
07 21:53 SW 6 16.09 Fair CLR 26 -5 12% 25 75.84 0.0
07 20:50 SW 13 16.09 Fair CLR 28 -6 10% 27 75.79 0.0
07 19:48 SW 15 16.09 Fair CLR 30 -8 8% 28 75.72 0.0
07 18:50 W 19 16.09 Fair CLR 32 -8 7% 30 75.69 0.0
07 17:50 W 24 16.09 Fair CLR 34 -9 6% 31 75.67 0.0
07 16:57 Calm 16.09 Fair CLR 34 -10 5% 32 75.69 0.0
07 15:53 W 22 16.09 Fair CLR 34 -7 7% 31 75.72 0.0
07 14:50 NW 13 16.09 Fair CLR 34 -7 7% 31 75.77 0.0
07 13:50 W 19 16.09 Fair CLR 33 -7 7% 31 75.82 0.0
07 12:48 S 7 16.09 Fair CLR 32 -7 7% 30 75.92 0.0
07 11:51 Vrbl 7 16.09 Fair CLR 31 -5 9% 29 75.97 0.0
07 10:55 Vrbl 7 16.09 Fair CLR 29 -4 11% 27 76.02 0.0
07 09:54 Vrbl 6 16.09 Fair CLR 27 -1 16% 26 76.07 0.0
07 08:50 Calm 16.09 Fair CLR 24 1 22% 25 76.1 0.0
07 07:47 S 15 0.00 Fair CLR 21 1 27% 76.1 0.0
07 06:50 E 11 16.09 Fair CLR 18 2 34% 76.07 0.0
07 05:50 SE 7 16.09 Fair CLR 16 3 42% 76.05 0.0
07 04:50 SE 7 16.09 Fair CLR 16 3 42% 76.02 0.0
07 04:35 SE 6 16.09 Fair CLR 16.4 3 41% 76.02 0.0
07 04:15 W 6 16.09 Fair CLR 17.3 1.5 35% 76.02 0.0
07 03:55 NW 6 16.09 Fair CLR 19.4 1.5 30% 76.02 0.0
07 03:35 Calm 16.09 Fair CLR 20 1.6 30% 76.05 0.0
07 03:15 NW 6 16.09 Fair CLR 20 1.5 29% 76.05 0.0
07 02:55 NW 6 16.09 Fair CLR 19.1 2.3 33% 76.07 0.0
07 02:35 Calm 16.09 Fair CLR 19.4 2.5 33% 76.07 0.0
07 02:15 Calm 16.09 Fair CLR 19.2 2.6 33% 76.07 0.0
07 01:55 NE 6 16.09 Fair CLR 20.4 2.5 31% 76.1 0.0
07 01:35 NE 9 16.09 Fair CLR 20.5 3.4 33% 76.1 0.0
07 01:15 NE 9 16.09 Fair CLR 20.4 4.2 35% 76.1 0.0
07 00:55 NE 9 16.09 Fair CLR 19.9 4.8 37% 76.12 0.0
07 00:35 NE 6 16.09 Fair CLR 20.8 3.4 32% 76.1 0.0
07 00:15 SE 7 16.09 Fair CLR 19.5 4.6 38% 76.12 0.0
06 23:47 Calm 16.09 Fair CLR 22 3 29% 76.1 0.0
06 22:47 Calm 16.09 Fair CLR 23 1 23% 76.1 0.0
06 21:48 Calm 16.09 Fair CLR 24 0 21% 25 76.07 0.0
06 20:55 SW 6 16.09 Fair CLR 24 0 21% 25 76.05 0.0
06 19:50 W 9 16.09 Fair CLR 25 0 19% 25 76 0.0
06 18:53 Calm 16.09 Fair CLR 27 0 17% 26 75.97 0.0
06 17:55 W 13 16.09 Fair CLR 27 0 17% 26 75.97 0.0
06 16:47 S 7 16.09 Fair CLR 27 0 17% 26 75.97 0.0
06 15:48 NW 13 16.09 Fair CLR 28 0 16% 27 76.02 0.0
06 14:53 NW 7 16.09 Fair CLR 27 0 17% 26 76.05 0.0
06 13:50 W 16685 16.09 Fair and Windy CLR 26 1 20% 25 76.12 0.0
06 12:50 NW 9 16.09 Fair CLR 25 1 21% 25 76.17 0.0
06 11:47 W 13 16.09 Fair CLR 24 2 24% 25 76.23 0.0
06 09:47 Vrbl 7 16.09 Fair CLR 21 2 29% 76.28 0.0
06 08:49 Calm 16.09 Fair CLR 20 3 33% 76.25 0.0
Date Time (mst) Wind (kph) Vis. (km) Weather Sky Cond. Air Dwpt Max. Min. Relative Humidity Wind Chill (°C) Heat Index (°C) altimeter (cm) sea level (mb) 1 hr 3 hr 6 hr
6 hour
Temperature (ºC) Pressure Precipitation (cm)